sensor_id;sensor_type;location;lat;lon;timestamp;P1;durP1;ratioP1;P2;durP2;ratioP2
43152;SDS011;28756;49.064;9.290;2022-09-09T00:10:13;1.25;;;0.63;;
43152;SDS011;28756;49.064;9.290;2022-09-09T00:13:19;3.08;;;0.70;;
43152;SDS011;28756;49.064;9.290;2022-09-09T00:15:59;2.53;;;0.63;;
43152;SDS011;28756;49.064;9.290;2022-09-09T00:21:36;2.50;;;0.60;;
43152;SDS011;28756;49.064;9.290;2022-09-09T00:27:07;1.08;;;0.60;;
43152;SDS011;28756;49.064;9.290;2022-09-09T00:29:58;2.40;;;0.70;;
43152;SDS011;28756;49.064;9.290;2022-09-09T00:32:41;0.82;;;0.60;;
43152;SDS011;28756;49.064;9.290;2022-09-09T00:38:03;1.40;;;0.60;;
43152;SDS011;28756;49.064;9.290;2022-09-09T00:55:25;1.80;;;0.60;;
43152;SDS011;28756;49.064;9.290;2022-09-09T00:58:06;2.28;;;0.57;;
43152;SDS011;28756;49.064;9.290;2022-09-09T01:01:19;1.40;;;0.77;;
43152;SDS011;28756;49.064;9.290;2022-09-09T01:06:20;3.85;;;0.65;;
43152;SDS011;28756;49.064;9.290;2022-09-09T01:11:51;4.03;;;0.63;;
43152;SDS011;28756;49.064;9.290;2022-09-09T01:17:03;1.58;;;0.63;;
43152;SDS011;28756;49.064;9.290;2022-09-09T01:27:54;2.13;;;0.77;;
43152;SDS011;28756;49.064;9.290;2022-09-09T01:30:25;0.88;;;0.57;;
43152;SDS011;28756;49.064;9.290;2022-09-09T01:32:53;1.38;;;0.70;;
43152;SDS011;28756;49.064;9.290;2022-09-09T01:38:39;1.95;;;0.57;;
43152;SDS011;28756;49.064;9.290;2022-09-09T01:41:05;0.60;;;0.50;;
43152;SDS011;28756;49.064;9.290;2022-09-09T01:43:31;4.43;;;1.08;;
43152;SDS011;28756;49.064;9.290;2022-09-09T01:45:59;1.33;;;0.60;;
43152;SDS011;28756;49.064;9.290;2022-09-09T01:48:27;1.23;;;0.70;;
43152;SDS011;28756;49.064;9.290;2022-09-09T01:50:54;1.67;;;0.90;;
43152;SDS011;28756;49.064;9.290;2022-09-09T01:53:20;3.22;;;0.80;;
43152;SDS011;28756;49.064;9.290;2022-09-09T01:56:00;1.13;;;0.57;;
43152;SDS011;28756;49.064;9.290;2022-09-09T02:01:36;1.27;;;0.70;;
43152;SDS011;28756;49.064;9.290;2022-09-09T02:04:42;2.45;;;0.80;;
43152;SDS011;28756;49.064;9.290;2022-09-09T02:07:30;0.95;;;0.52;;
43152;SDS011;28756;49.064;9.290;2022-09-09T02:10:12;3.03;;;0.70;;
43152;SDS011;28756;49.064;9.290;2022-09-09T02:13:24;1.75;;;0.80;;
43152;SDS011;28756;49.064;9.290;2022-09-09T02:15:52;1.55;;;0.57;;
43152;SDS011;28756;49.064;9.290;2022-09-09T02:21:48;2.53;;;0.73;;
43152;SDS011;28756;49.064;9.290;2022-09-09T02:24:15;1.27;;;0.60;;
43152;SDS011;28756;49.064;9.290;2022-09-09T02:26:41;2.30;;;0.80;;
43152;SDS011;28756;49.064;9.290;2022-09-09T02:29:12;0.95;;;0.55;;
43152;SDS011;28756;49.064;9.290;2022-09-09T02:31:50;2.05;;;0.65;;
43152;SDS011;28756;49.064;9.290;2022-09-09T02:34:18;3.85;;;0.80;;
43152;SDS011;28756;49.064;9.290;2022-09-09T02:36:48;2.20;;;0.60;;
43152;SDS011;28756;49.064;9.290;2022-09-09T02:39:17;1.85;;;0.80;;
43152;SDS011;28756;49.064;9.290;2022-09-09T02:41:43;1.55;;;0.55;;
43152;SDS011;28756;49.064;9.290;2022-09-09T02:44:10;1.15;;;0.50;;
43152;SDS011;28756;49.064;9.290;2022-09-09T02:49:28;2.72;;;0.60;;
43152;SDS011;28756;49.064;9.290;2022-09-09T02:52:18;2.00;;;0.60;;
43152;SDS011;28756;49.064;9.290;2022-09-09T02:54:54;1.02;;;0.50;;
43152;SDS011;28756;49.064;9.290;2022-09-09T02:57:29;2.20;;;0.70;;
43152;SDS011;28756;49.064;9.290;2022-09-09T02:59:58;2.78;;;0.60;;
43152;SDS011;28756;49.064;9.290;2022-09-09T03:02:25;1.08;;;0.55;;
43152;SDS011;28756;49.064;9.290;2022-09-09T03:04:51;0.60;;;0.50;;
43152;SDS011;28756;49.064;9.290;2022-09-09T03:07:17;2.28;;;0.80;;
43152;SDS011;28756;49.064;9.290;2022-09-09T03:09:44;2.00;;;0.70;;
43152;SDS011;28756;49.064;9.290;2022-09-09T03:12:10;1.30;;;0.80;;
43152;SDS011;28756;49.064;9.290;2022-09-09T03:14:37;1.77;;;0.70;;
43152;SDS011;28756;49.064;9.290;2022-09-09T03:17:04;4.13;;;0.93;;
43152;SDS011;28756;49.064;9.290;2022-09-09T03:19:30;2.13;;;0.65;;
43152;SDS011;28756;49.064;9.290;2022-09-09T03:21:57;2.47;;;0.82;;
43152;SDS011;28756;49.064;9.290;2022-09-09T03:24:23;1.83;;;0.80;;
43152;SDS011;28756;49.064;9.290;2022-09-09T03:26:50;2.67;;;0.80;;
43152;SDS011;28756;49.064;9.290;2022-09-09T03:29:16;4.50;;;1.20;;
43152;SDS011;28756;49.064;9.290;2022-09-09T03:31:43;2.95;;;0.80;;
43152;SDS011;28756;49.064;9.290;2022-09-09T03:34:09;2.10;;;0.70;;
43152;SDS011;28756;49.064;9.290;2022-09-09T03:36:35;1.70;;;0.77;;
43152;SDS011;28756;49.064;9.290;2022-09-09T03:39:02;1.67;;;0.70;;
43152;SDS011;28756;49.064;9.290;2022-09-09T03:41:28;2.40;;;0.80;;
43152;SDS011;28756;49.064;9.290;2022-09-09T03:43:55;3.13;;;0.95;;
43152;SDS011;28756;49.064;9.290;2022-09-09T03:46:22;1.85;;;0.70;;
43152;SDS011;28756;49.064;9.290;2022-09-09T03:48:49;2.30;;;0.70;;
43152;SDS011;28756;49.064;9.290;2022-09-09T03:51:17;2.10;;;0.80;;
43152;SDS011;28756;49.064;9.290;2022-09-09T03:53:43;1.65;;;0.60;;
43152;SDS011;28756;49.064;9.290;2022-09-09T03:56:09;1.38;;;0.50;;
43152;SDS011;28756;49.064;9.290;2022-09-09T03:58:35;0.85;;;0.40;;
43152;SDS011;28756;49.064;9.290;2022-09-09T04:01:06;3.60;;;0.70;;
43152;SDS011;28756;49.064;9.290;2022-09-09T04:03:42;1.60;;;0.60;;
43152;SDS011;28756;49.064;9.290;2022-09-09T04:06:10;1.50;;;0.50;;
43152;SDS011;28756;49.064;9.290;2022-09-09T04:08:38;1.95;;;0.77;;
43152;SDS011;28756;49.064;9.290;2022-09-09T04:11:04;1.65;;;0.52;;
43152;SDS011;28756;49.064;9.290;2022-09-09T04:13:31;1.58;;;0.70;;
43152;SDS011;28756;49.064;9.290;2022-09-09T04:15:59;2.58;;;0.60;;
43152;SDS011;28756;49.064;9.290;2022-09-09T04:18:27;1.10;;;0.60;;
43152;SDS011;28756;49.064;9.290;2022-09-09T04:20:53;1.05;;;0.43;;
43152;SDS011;28756;49.064;9.290;2022-09-09T04:23:22;1.50;;;0.60;;
43152;SDS011;28756;49.064;9.290;2022-09-09T04:25:53;1.60;;;0.70;;
43152;SDS011;28756;49.064;9.290;2022-09-09T04:28:21;1.50;;;0.65;;
43152;SDS011;28756;49.064;9.290;2022-09-09T04:30:49;1.83;;;0.70;;
43152;SDS011;28756;49.064;9.290;2022-09-09T04:33:15;1.85;;;0.65;;
43152;SDS011;28756;49.064;9.290;2022-09-09T04:35:46;1.27;;;0.65;;
43152;SDS011;28756;49.064;9.290;2022-09-09T04:38:14;1.33;;;0.73;;
43152;SDS011;28756;49.064;9.290;2022-09-09T04:40:48;1.63;;;0.65;;
43152;SDS011;28756;49.064;9.290;2022-09-09T04:43:16;1.00;;;0.60;;
43152;SDS011;28756;49.064;9.290;2022-09-09T04:45:44;1.45;;;0.60;;
43152;SDS011;28756;49.064;9.290;2022-09-09T04:48:13;1.65;;;0.50;;
43152;SDS011;28756;49.064;9.290;2022-09-09T04:50:39;1.80;;;0.73;;
43152;SDS011;28756;49.064;9.290;2022-09-09T04:53:06;2.17;;;0.90;;
43152;SDS011;28756;49.064;9.290;2022-09-09T04:55:32;1.70;;;0.60;;
43152;SDS011;28756;49.064;9.290;2022-09-09T04:58:07;0.98;;;0.70;;
43152;SDS011;28756;49.064;9.290;2022-09-09T05:00:34;1.15;;;0.60;;
43152;SDS011;28756;49.064;9.290;2022-09-09T05:03:04;1.05;;;0.50;;
43152;SDS011;28756;49.064;9.290;2022-09-09T05:05:31;2.70;;;0.70;;
43152;SDS011;28756;49.064;9.290;2022-09-09T05:08:04;0.70;;;0.50;;
43152;SDS011;28756;49.064;9.290;2022-09-09T05:10:32;1.08;;;0.50;;
43152;SDS011;28756;49.064;9.290;2022-09-09T05:12:59;1.45;;;0.60;;
43152;SDS011;28756;49.064;9.290;2022-09-09T05:15:24;1.88;;;0.70;;
43152;SDS011;28756;49.064;9.290;2022-09-09T05:17:50;2.38;;;0.63;;
43152;SDS011;28756;49.064;9.290;2022-09-09T05:20:18;1.75;;;0.70;;
43152;SDS011;28756;49.064;9.290;2022-09-09T05:22:43;1.20;;;0.60;;
43152;SDS011;28756;49.064;9.290;2022-09-09T05:25:09;1.60;;;0.70;;
43152;SDS011;28756;49.064;9.290;2022-09-09T05:27:35;0.98;;;0.60;;
43152;SDS011;28756;49.064;9.290;2022-09-09T05:30:01;1.60;;;0.70;;
43152;SDS011;28756;49.064;9.290;2022-09-09T05:32:27;1.95;;;0.77;;
43152;SDS011;28756;49.064;9.290;2022-09-09T05:34:57;1.52;;;0.65;;
43152;SDS011;28756;49.064;9.290;2022-09-09T05:37:23;1.38;;;0.65;;
43152;SDS011;28756;49.064;9.290;2022-09-09T05:39:49;1.85;;;0.70;;
43152;SDS011;28756;49.064;9.290;2022-09-09T05:42:15;0.93;;;0.60;;
43152;SDS011;28756;49.064;9.290;2022-09-09T05:44:41;1.00;;;0.60;;
43152;SDS011;28756;49.064;9.290;2022-09-09T05:47:09;1.10;;;0.70;;
43152;SDS011;28756;49.064;9.290;2022-09-09T05:49:36;1.33;;;0.70;;
43152;SDS011;28756;49.064;9.290;2022-09-09T05:52:02;1.73;;;0.88;;
43152;SDS011;28756;49.064;9.290;2022-09-09T05:54:28;1.45;;;0.70;;
43152;SDS011;28756;49.064;9.290;2022-09-09T05:56:55;1.48;;;0.57;;
43152;SDS011;28756;49.064;9.290;2022-09-09T05:59:21;0.95;;;0.60;;
43152;SDS011;28756;49.064;9.290;2022-09-09T06:01:48;1.75;;;0.70;;
43152;SDS011;28756;49.064;9.290;2022-09-09T06:04:14;1.63;;;0.70;;
43152;SDS011;28756;49.064;9.290;2022-09-09T06:06:40;1.58;;;0.60;;
43152;SDS011;28756;49.064;9.290;2022-09-09T06:09:07;4.55;;;0.80;;
43152;SDS011;28756;49.064;9.290;2022-09-09T06:11:35;1.92;;;0.80;;
43152;SDS011;28756;49.064;9.290;2022-09-09T06:14:04;1.67;;;0.70;;
43152;SDS011;28756;49.064;9.290;2022-09-09T06:16:30;2.05;;;0.77;;
43152;SDS011;28756;49.064;9.290;2022-09-09T06:18:59;1.15;;;0.60;;
43152;SDS011;28756;49.064;9.290;2022-09-09T06:21:32;1.67;;;0.73;;
43152;SDS011;28756;49.064;9.290;2022-09-09T06:24:02;3.38;;;0.80;;
43152;SDS011;28756;49.064;9.290;2022-09-09T06:26:30;1.55;;;0.65;;
43152;SDS011;28756;49.064;9.290;2022-09-09T06:28:59;0.88;;;0.80;;
43152;SDS011;28756;49.064;9.290;2022-09-09T06:31:27;1.48;;;0.80;;
43152;SDS011;28756;49.064;9.290;2022-09-09T06:33:59;1.20;;;0.60;;
43152;SDS011;28756;49.064;9.290;2022-09-09T06:36:29;2.42;;;0.70;;
43152;SDS011;28756;49.064;9.290;2022-09-09T06:38:58;2.20;;;0.70;;
43152;SDS011;28756;49.064;9.290;2022-09-09T06:41:26;5.15;;;0.70;;
43152;SDS011;28756;49.064;9.290;2022-09-09T06:43:54;4.38;;;0.90;;
43152;SDS011;28756;49.064;9.290;2022-09-09T06:46:24;2.63;;;0.90;;
43152;SDS011;28756;49.064;9.290;2022-09-09T06:48:52;1.95;;;0.80;;
43152;SDS011;28756;49.064;9.290;2022-09-09T06:51:20;1.95;;;1.08;;
43152;SDS011;28756;49.064;9.290;2022-09-09T06:53:52;2.33;;;0.80;;
43152;SDS011;28756;49.064;9.290;2022-09-09T06:58:51;1.65;;;0.70;;
43152;SDS011;28756;49.064;9.290;2022-09-09T07:01:18;1.88;;;0.90;;
43152;SDS011;28756;49.064;9.290;2022-09-09T07:03:50;3.47;;;0.88;;
43152;SDS011;28756;49.064;9.290;2022-09-09T07:06:22;2.92;;;0.90;;
43152;SDS011;28756;49.064;9.290;2022-09-09T07:11:18;1.83;;;0.80;;
43152;SDS011;28756;49.064;9.290;2022-09-09T07:13:46;2.28;;;0.95;;
43152;SDS011;28756;49.064;9.290;2022-09-09T07:16:14;3.20;;;1.10;;
43152;SDS011;28756;49.064;9.290;2022-09-09T07:18:43;1.52;;;0.80;;
43152;SDS011;28756;49.064;9.290;2022-09-09T07:21:10;2.35;;;0.82;;
43152;SDS011;28756;49.064;9.290;2022-09-09T07:23:38;2.70;;;0.90;;
43152;SDS011;28756;49.064;9.290;2022-09-09T07:26:11;2.50;;;1.05;;
43152;SDS011;28756;49.064;9.290;2022-09-09T07:28:40;2.92;;;0.90;;
43152;SDS011;28756;49.064;9.290;2022-09-09T07:31:08;4.10;;;0.80;;
43152;SDS011;28756;49.064;9.290;2022-09-09T07:33:40;1.65;;;0.65;;
43152;SDS011;28756;49.064;9.290;2022-09-09T07:36:07;0.80;;;0.50;;
43152;SDS011;28756;49.064;9.290;2022-09-09T07:38:57;2.13;;;0.55;;
43152;SDS011;28756;49.064;9.290;2022-09-09T07:41:29;2.10;;;0.55;;
43152;SDS011;28756;49.064;9.290;2022-09-09T07:44:09;2.10;;;0.70;;
43152;SDS011;28756;49.064;9.290;2022-09-09T07:46:44;2.47;;;0.98;;
43152;SDS011;28756;49.064;9.290;2022-09-09T07:49:11;3.47;;;0.80;;
43152;SDS011;28756;49.064;9.290;2022-09-09T07:51:38;2.38;;;0.60;;
43152;SDS011;28756;49.064;9.290;2022-09-09T07:54:08;2.50;;;0.47;;
43152;SDS011;28756;49.064;9.290;2022-09-09T07:56:37;3.88;;;0.95;;
43152;SDS011;28756;49.064;9.290;2022-09-09T07:59:04;2.08;;;0.70;;
43152;SDS011;28756;49.064;9.290;2022-09-09T08:01:41;1.42;;;0.73;;
43152;SDS011;28756;49.064;9.290;2022-09-09T08:04:14;2.38;;;0.60;;
43152;SDS011;28756;49.064;9.290;2022-09-09T08:06:43;1.77;;;0.65;;
43152;SDS011;28756;49.064;9.290;2022-09-09T08:09:15;2.38;;;0.47;;
43152;SDS011;28756;49.064;9.290;2022-09-09T08:11:42;4.80;;;0.90;;
43152;SDS011;28756;49.064;9.290;2022-09-09T08:14:08;1.50;;;0.50;;
43152;SDS011;28756;49.064;9.290;2022-09-09T08:16:37;2.13;;;0.80;;
43152;SDS011;28756;49.064;9.290;2022-09-09T08:19:06;2.90;;;0.75;;
43152;SDS011;28756;49.064;9.290;2022-09-09T08:21:33;1.98;;;0.60;;
43152;SDS011;28756;49.064;9.290;2022-09-09T08:24:01;2.50;;;0.50;;
43152;SDS011;28756;49.064;9.290;2022-09-09T08:26:29;2.92;;;0.55;;
43152;SDS011;28756;49.064;9.290;2022-09-09T08:28:59;5.90;;;0.95;;
43152;SDS011;28756;49.064;9.290;2022-09-09T08:31:27;2.25;;;0.75;;
43152;SDS011;28756;49.064;9.290;2022-09-09T08:33:59;2.75;;;0.70;;
43152;SDS011;28756;49.064;9.290;2022-09-09T08:36:29;2.72;;;0.60;;
43152;SDS011;28756;49.064;9.290;2022-09-09T08:38:58;2.45;;;0.80;;
43152;SDS011;28756;49.064;9.290;2022-09-09T08:50:22;3.65;;;1.08;;
43152;SDS011;28756;49.064;9.290;2022-09-09T08:58:34;2.25;;;0.68;;
43152;SDS011;28756;49.064;9.290;2022-09-09T09:01:17;2.55;;;0.80;;
43152;SDS011;28756;49.064;9.290;2022-09-09T09:04:37;6.05;;;1.10;;
43152;SDS011;28756;49.064;9.290;2022-09-09T09:13:01;4.50;;;0.70;;
43152;SDS011;28756;49.064;9.290;2022-09-09T09:15:31;1.90;;;0.50;;
43152;SDS011;28756;49.064;9.290;2022-09-09T09:18:03;2.97;;;0.60;;
43152;SDS011;28756;49.064;9.290;2022-09-09T09:20:45;3.67;;;0.63;;
43152;SDS011;28756;49.064;9.290;2022-09-09T09:23:29;1.60;;;0.40;;
43152;SDS011;28756;49.064;9.290;2022-09-09T09:26:10;1.90;;;0.60;;
43152;SDS011;28756;49.064;9.290;2022-09-09T09:28:36;2.70;;;0.70;;
43152;SDS011;28756;49.064;9.290;2022-09-09T09:31:11;1.73;;;0.50;;
43152;SDS011;28756;49.064;9.290;2022-09-09T09:33:51;3.35;;;0.70;;
43152;SDS011;28756;49.064;9.290;2022-09-09T09:36:19;2.25;;;0.57;;
43152;SDS011;28756;49.064;9.290;2022-09-09T09:39:07;2.13;;;0.50;;
43152;SDS011;28756;49.064;9.290;2022-09-09T09:41:35;2.80;;;0.82;;
43152;SDS011;28756;49.064;9.290;2022-09-09T09:44:05;1.13;;;0.40;;
43152;SDS011;28756;49.064;9.290;2022-09-09T09:46:48;1.52;;;0.47;;
43152;SDS011;28756;49.064;9.290;2022-09-09T09:49:14;3.50;;;0.70;;
43152;SDS011;28756;49.064;9.290;2022-09-09T09:51:39;1.65;;;0.57;;
43152;SDS011;28756;49.064;9.290;2022-09-09T09:57:07;2.47;;;0.63;;
43152;SDS011;28756;49.064;9.290;2022-09-09T09:59:36;3.22;;;0.70;;
43152;SDS011;28756;49.064;9.290;2022-09-09T10:05:08;2.50;;;0.77;;
43152;SDS011;28756;49.064;9.290;2022-09-09T10:19:38;1.55;;;0.52;;
43152;SDS011;28756;49.064;9.290;2022-09-09T10:22:32;1.98;;;0.60;;
43152;SDS011;28756;49.064;9.290;2022-09-09T10:25:04;2.80;;;0.52;;
43152;SDS011;28756;49.064;9.290;2022-09-09T10:34:12;4.43;;;0.70;;
43152;SDS011;28756;49.064;9.290;2022-09-09T10:49:23;3.08;;;0.60;;
43152;SDS011;28756;49.064;9.290;2022-09-09T10:55:16;5.40;;;0.80;;
43152;SDS011;28756;49.064;9.290;2022-09-09T10:57:48;1.83;;;0.57;;
43152;SDS011;28756;49.064;9.290;2022-09-09T11:00:20;4.93;;;0.93;;
43152;SDS011;28756;49.064;9.290;2022-09-09T11:03:03;3.72;;;0.60;;
43152;SDS011;28756;49.064;9.290;2022-09-09T11:06:04;3.97;;;0.82;;
43152;SDS011;28756;49.064;9.290;2022-09-09T11:08:30;2.58;;;0.50;;
43152;SDS011;28756;49.064;9.290;2022-09-09T11:11:04;2.28;;;0.70;;
43152;SDS011;28756;49.064;9.290;2022-09-09T11:19:19;2.22;;;0.73;;
43152;SDS011;28756;49.064;9.290;2022-09-09T11:21:56;1.33;;;0.50;;
43152;SDS011;28756;49.064;9.290;2022-09-09T11:24:29;2.00;;;0.60;;
43152;SDS011;28756;49.064;9.290;2022-09-09T11:27:16;1.85;;;0.60;;
43152;SDS011;28756;49.064;9.290;2022-09-09T11:32:47;3.97;;;0.80;;
43152;SDS011;28756;49.064;9.290;2022-09-09T11:35:30;3.50;;;0.73;;
43152;SDS011;28756;49.064;9.290;2022-09-09T11:38:32;1.48;;;0.50;;
43152;SDS011;28756;49.064;9.290;2022-09-09T11:41:10;2.53;;;0.70;;
43152;SDS011;28756;49.064;9.290;2022-09-09T11:43:43;2.70;;;0.55;;
43152;SDS011;28756;49.064;9.290;2022-09-09T11:46:19;2.63;;;0.55;;
43152;SDS011;28756;49.064;9.290;2022-09-09T11:48:59;5.20;;;0.40;;
43152;SDS011;28756;49.064;9.290;2022-09-09T11:51:31;4.43;;;0.40;;
43152;SDS011;28756;49.064;9.290;2022-09-09T11:56:46;1.60;;;0.77;;
43152;SDS011;28756;49.064;9.290;2022-09-09T11:59:22;0.52;;;0.20;;
43152;SDS011;28756;49.064;9.290;2022-09-09T12:02:02;1.65;;;0.38;;
43152;SDS011;28756;49.064;9.290;2022-09-09T12:10:19;0.75;;;0.20;;
43152;SDS011;28756;49.064;9.290;2022-09-09T12:13:07;0.95;;;0.22;;
43152;SDS011;28756;49.064;9.290;2022-09-09T12:15:48;0.45;;;0.20;;
43152;SDS011;28756;49.064;9.290;2022-09-09T12:18:38;1.02;;;0.30;;
43152;SDS011;28756;49.064;9.290;2022-09-09T12:21:11;0.65;;;0.20;;
43152;SDS011;28756;49.064;9.290;2022-09-09T12:24:11;0.10;;;0.10;;
43152;SDS011;28756;49.064;9.290;2022-09-09T12:30:18;0.43;;;0.20;;
43152;SDS011;28756;49.064;9.290;2022-09-09T12:32:46;0.90;;;0.20;;
43152;SDS011;28756;49.064;9.290;2022-09-09T12:35:19;0.63;;;0.20;;
43152;SDS011;28756;49.064;9.290;2022-09-09T12:37:52;0.75;;;0.20;;
43152;SDS011;28756;49.064;9.290;2022-09-09T12:42:50;0.10;;;0.10;;
43152;SDS011;28756;49.064;9.290;2022-09-09T12:45:17;1.88;;;0.20;;
43152;SDS011;28756;49.064;9.290;2022-09-09T12:50:29;0.45;;;0.22;;
43152;SDS011;28756;49.064;9.290;2022-09-09T12:53:12;0.38;;;0.20;;
43152;SDS011;28756;49.064;9.290;2022-09-09T12:55:57;0.98;;;0.25;;
43152;SDS011;28756;49.064;9.290;2022-09-09T12:58:32;0.25;;;0.20;;
43152;SDS011;28756;49.064;9.290;2022-09-09T13:00:59;0.73;;;0.20;;
43152;SDS011;28756;49.064;9.290;2022-09-09T13:03:29;0.50;;;0.20;;
43152;SDS011;28756;49.064;9.290;2022-09-09T13:05:58;1.00;;;0.25;;
43152;SDS011;28756;49.064;9.290;2022-09-09T13:08:37;1.05;;;0.13;;
43152;SDS011;28756;49.064;9.290;2022-09-09T13:11:04;1.90;;;0.30;;
43152;SDS011;28756;49.064;9.290;2022-09-09T13:13:41;2.13;;;0.40;;
43152;SDS011;28756;49.064;9.290;2022-09-09T13:16:22;0.93;;;0.30;;
43152;SDS011;28756;49.064;9.290;2022-09-09T13:18:55;3.00;;;0.30;;
43152;SDS011;28756;49.064;9.290;2022-09-09T13:21:34;1.42;;;0.43;;
43152;SDS011;28756;49.064;9.290;2022-09-09T13:24:03;1.95;;;0.38;;
43152;SDS011;28756;49.064;9.290;2022-09-09T13:26:33;0.88;;;0.30;;
43152;SDS011;28756;49.064;9.290;2022-09-09T13:29:18;2.03;;;0.65;;
43152;SDS011;28756;49.064;9.290;2022-09-09T13:31:44;1.10;;;0.40;;
43152;SDS011;28756;49.064;9.290;2022-09-09T13:34:22;1.45;;;0.30;;
43152;SDS011;28756;49.064;9.290;2022-09-09T13:36:58;1.00;;;0.35;;
43152;SDS011;28756;49.064;9.290;2022-09-09T13:39:31;1.40;;;0.40;;
43152;SDS011;28756;49.064;9.290;2022-09-09T13:42:01;1.05;;;0.35;;
43152;SDS011;28756;49.064;9.290;2022-09-09T13:44:32;1.23;;;0.40;;
43152;SDS011;28756;49.064;9.290;2022-09-09T13:47:20;1.88;;;0.38;;
43152;SDS011;28756;49.064;9.290;2022-09-09T13:49:58;1.45;;;0.40;;
43152;SDS011;28756;49.064;9.290;2022-09-09T13:52:34;1.85;;;0.65;;
43152;SDS011;28756;49.064;9.290;2022-09-09T13:55:00;1.20;;;0.32;;
43152;SDS011;28756;49.064;9.290;2022-09-09T13:57:26;1.15;;;0.30;;
43152;SDS011;28756;49.064;9.290;2022-09-09T13:59:52;1.67;;;0.30;;
43152;SDS011;28756;49.064;9.290;2022-09-09T14:02:22;1.10;;;0.40;;
43152;SDS011;28756;49.064;9.290;2022-09-09T14:04:49;1.83;;;0.50;;
43152;SDS011;28756;49.064;9.290;2022-09-09T14:07:19;3.65;;;0.35;;
43152;SDS011;28756;49.064;9.290;2022-09-09T14:09:46;2.40;;;0.30;;
43152;SDS011;28756;49.064;9.290;2022-09-09T14:12:15;0.90;;;0.35;;
43152;SDS011;28756;49.064;9.290;2022-09-09T14:14:41;1.08;;;0.47;;
43152;SDS011;28756;49.064;9.290;2022-09-09T14:17:08;0.98;;;0.30;;
43152;SDS011;28756;49.064;9.290;2022-09-09T14:19:34;1.70;;;0.40;;
43152;SDS011;28756;49.064;9.290;2022-09-09T14:22:01;1.92;;;0.50;;
43152;SDS011;28756;49.064;9.290;2022-09-09T14:24:27;3.15;;;0.43;;
43152;SDS011;28756;49.064;9.290;2022-09-09T14:26:53;0.95;;;0.30;;
43152;SDS011;28756;49.064;9.290;2022-09-09T14:29:19;1.73;;;0.50;;
43152;SDS011;28756;49.064;9.290;2022-09-09T14:31:45;1.67;;;0.45;;
43152;SDS011;28756;49.064;9.290;2022-09-09T14:34:11;1.02;;;0.40;;
43152;SDS011;28756;49.064;9.290;2022-09-09T14:36:39;3.03;;;0.60;;
43152;SDS011;28756;49.064;9.290;2022-09-09T14:39:06;1.38;;;0.32;;
43152;SDS011;28756;49.064;9.290;2022-09-09T14:41:32;1.75;;;0.40;;
43152;SDS011;28756;49.064;9.290;2022-09-09T14:43:58;1.17;;;0.32;;
43152;SDS011;28756;49.064;9.290;2022-09-09T14:46:24;1.45;;;0.55;;
43152;SDS011;28756;49.064;9.290;2022-09-09T14:48:51;1.88;;;0.50;;
43152;SDS011;28756;49.064;9.290;2022-09-09T14:51:19;1.10;;;0.40;;
43152;SDS011;28756;49.064;9.290;2022-09-09T14:53:48;1.60;;;0.40;;
43152;SDS011;28756;49.064;9.290;2022-09-09T14:56:18;1.70;;;0.30;;
43152;SDS011;28756;49.064;9.290;2022-09-09T14:58:47;2.17;;;0.43;;
43152;SDS011;28756;49.064;9.290;2022-09-09T15:01:14;2.38;;;0.73;;
43152;SDS011;28756;49.064;9.290;2022-09-09T15:03:48;2.22;;;0.43;;
43152;SDS011;28756;49.064;9.290;2022-09-09T15:06:36;0.70;;;0.32;;
43152;SDS011;28756;49.064;9.290;2022-09-09T15:09:04;1.95;;;0.73;;
43152;SDS011;28756;49.064;9.290;2022-09-09T15:11:31;1.67;;;0.40;;
43152;SDS011;28756;49.064;9.290;2022-09-09T15:14:04;3.33;;;0.60;;
43152;SDS011;28756;49.064;9.290;2022-09-09T15:16:32;1.45;;;0.32;;
43152;SDS011;28756;49.064;9.290;2022-09-09T15:18:59;1.08;;;0.40;;
43152;SDS011;28756;49.064;9.290;2022-09-09T15:21:28;0.70;;;0.30;;
43152;SDS011;28756;49.064;9.290;2022-09-09T15:23:56;2.75;;;0.40;;
43152;SDS011;28756;49.064;9.290;2022-09-09T15:26:22;0.52;;;0.20;;
43152;SDS011;28756;49.064;9.290;2022-09-09T15:28:49;1.35;;;0.40;;
43152;SDS011;28756;49.064;9.290;2022-09-09T15:31:17;2.63;;;0.40;;
43152;SDS011;28756;49.064;9.290;2022-09-09T15:36:26;1.90;;;0.40;;
43152;SDS011;28756;49.064;9.290;2022-09-09T15:38:54;1.65;;;0.40;;
43152;SDS011;28756;49.064;9.290;2022-09-09T15:41:21;1.55;;;0.50;;
43152;SDS011;28756;49.064;9.290;2022-09-09T15:43:52;0.77;;;0.30;;
43152;SDS011;28756;49.064;9.290;2022-09-09T15:46:32;1.13;;;0.40;;
43152;SDS011;28756;49.064;9.290;2022-09-09T15:49:10;0.80;;;0.35;;
43152;SDS011;28756;49.064;9.290;2022-09-09T15:51:39;1.15;;;0.30;;
43152;SDS011;28756;49.064;9.290;2022-09-09T15:54:08;0.30;;;0.20;;
43152;SDS011;28756;49.064;9.290;2022-09-09T15:56:36;1.92;;;0.20;;
43152;SDS011;28756;49.064;9.290;2022-09-09T15:59:03;1.77;;;0.30;;
43152;SDS011;28756;49.064;9.290;2022-09-09T16:01:29;1.75;;;0.40;;
43152;SDS011;28756;49.064;9.290;2022-09-09T16:03:57;0.80;;;0.40;;
43152;SDS011;28756;49.064;9.290;2022-09-09T16:06:24;1.27;;;0.35;;
43152;SDS011;28756;49.064;9.290;2022-09-09T16:08:52;0.98;;;0.30;;
43152;SDS011;28756;49.064;9.290;2022-09-09T16:11:20;0.80;;;0.30;;
43152;SDS011;28756;49.064;9.290;2022-09-09T16:13:49;0.38;;;0.28;;
43152;SDS011;28756;49.064;9.290;2022-09-09T16:16:18;1.25;;;0.30;;
43152;SDS011;28756;49.064;9.290;2022-09-09T16:18:50;0.98;;;0.40;;
43152;SDS011;28756;49.064;9.290;2022-09-09T16:21:28;5.45;;;0.40;;
43152;SDS011;28756;49.064;9.290;2022-09-09T16:24:01;1.45;;;0.40;;
43152;SDS011;28756;49.064;9.290;2022-09-09T16:26:29;1.48;;;0.60;;
43152;SDS011;28756;49.064;9.290;2022-09-09T16:28:57;0.90;;;0.40;;
43152;SDS011;28756;49.064;9.290;2022-09-09T16:31:26;1.48;;;0.38;;
43152;SDS011;28756;49.064;9.290;2022-09-09T16:33:53;3.10;;;0.73;;
43152;SDS011;28756;49.064;9.290;2022-09-09T16:36:20;1.73;;;0.60;;
43152;SDS011;28756;49.064;9.290;2022-09-09T16:38:52;3.08;;;0.60;;
43152;SDS011;28756;49.064;9.290;2022-09-09T16:41:23;1.75;;;0.50;;
43152;SDS011;28756;49.064;9.290;2022-09-09T16:43:53;2.45;;;0.60;;
43152;SDS011;28756;49.064;9.290;2022-09-09T16:46:24;0.95;;;0.50;;
43152;SDS011;28756;49.064;9.290;2022-09-09T16:48:52;1.65;;;0.40;;
43152;SDS011;28756;49.064;9.290;2022-09-09T16:51:21;1.45;;;0.77;;
43152;SDS011;28756;49.064;9.290;2022-09-09T16:53:53;1.20;;;0.40;;
43152;SDS011;28756;49.064;9.290;2022-09-09T16:56:20;2.92;;;0.40;;
43152;SDS011;28756;49.064;9.290;2022-09-09T16:58:53;0.57;;;0.20;;
43152;SDS011;28756;49.064;9.290;2022-09-09T17:01:24;1.02;;;0.28;;
43152;SDS011;28756;49.064;9.290;2022-09-09T17:03:53;0.63;;;0.20;;
43152;SDS011;28756;49.064;9.290;2022-09-09T17:06:25;0.57;;;0.20;;
43152;SDS011;28756;49.064;9.290;2022-09-09T17:08:55;0.47;;;0.30;;
43152;SDS011;28756;49.064;9.290;2022-09-09T17:11:26;0.88;;;0.22;;
43152;SDS011;28756;49.064;9.290;2022-09-09T17:13:53;0.85;;;0.20;;
43152;SDS011;28756;49.064;9.290;2022-09-09T17:16:21;0.43;;;0.20;;
43152;SDS011;28756;49.064;9.290;2022-09-09T17:18:49;1.15;;;0.30;;
43152;SDS011;28756;49.064;9.290;2022-09-09T17:21:17;0.82;;;0.20;;
43152;SDS011;28756;49.064;9.290;2022-09-09T17:23:46;1.48;;;0.22;;
43152;SDS011;28756;49.064;9.290;2022-09-09T17:26:16;2.15;;;0.30;;
43152;SDS011;28756;49.064;9.290;2022-09-09T17:28:46;0.35;;;0.25;;
43152;SDS011;28756;49.064;9.290;2022-09-09T17:31:13;0.80;;;0.20;;
43152;SDS011;28756;49.064;9.290;2022-09-09T17:33:43;0.95;;;0.28;;
43152;SDS011;28756;49.064;9.290;2022-09-09T17:36:14;0.90;;;0.40;;
43152;SDS011;28756;49.064;9.290;2022-09-09T17:38:43;0.95;;;0.35;;
43152;SDS011;28756;49.064;9.290;2022-09-09T17:43:43;0.60;;;0.20;;
43152;SDS011;28756;49.064;9.290;2022-09-09T17:46:17;0.10;;;0.10;;
43152;SDS011;28756;49.064;9.290;2022-09-09T17:48:54;0.65;;;0.20;;
43152;SDS011;28756;49.064;9.290;2022-09-09T17:51:23;1.08;;;0.30;;